sensor_id;sensor_type;location;lat;lon;timestamp;temperature;humidity
16160;DHT22;8185;57.818;15.224;2023-03-01T00:01:01;-1.50;99.90
16160;DHT22;8185;57.818;15.224;2023-03-01T00:03:28;-1.50;99.90
16160;DHT22;8185;57.818;15.224;2023-03-01T00:05:56;-1.50;99.90
16160;DHT22;8185;57.818;15.224;2023-03-01T00:08:23;-1.40;99.90
16160;DHT22;8185;57.818;15.224;2023-03-01T00:11:00;-1.50;99.90
16160;DHT22;8185;57.818;15.224;2023-03-01T00:13:29;-1.50;99.90
16160;DHT22;8185;57.818;15.224;2023-03-01T00:15:56;-1.50;99.90
16160;DHT22;8185;57.818;15.224;2023-03-01T00:18:24;-1.60;99.90
16160;DHT22;8185;57.818;15.224;2023-03-01T00:20:51;-1.60;99.90
16160;DHT22;8185;57.818;15.224;2023-03-01T00:23:19;-1.70;99.90
16160;DHT22;8185;57.818;15.224;2023-03-01T00:25:47;-1.80;99.90
16160;DHT22;8185;57.818;15.224;2023-03-01T00:28:15;-1.80;99.90
16160;DHT22;8185;57.818;15.224;2023-03-01T00:30:44;-1.70;99.90
16160;DHT22;8185;57.818;15.224;2023-03-01T00:33:11;-1.70;99.90
16160;DHT22;8185;57.818;15.224;2023-03-01T00:35:38;-1.80;99.90
16160;DHT22;8185;57.818;15.224;2023-03-01T00:38:06;-1.80;99.90
16160;DHT22;8185;57.818;15.224;2023-03-01T00:40:35;-1.90;99.90
16160;DHT22;8185;57.818;15.224;2023-03-01T00:43:03;-1.90;99.90
16160;DHT22;8185;57.818;15.224;2023-03-01T00:45:33;-1.90;99.90
16160;DHT22;8185;57.818;15.224;2023-03-01T00:48:01;-1.80;99.90
16160;DHT22;8185;57.818;15.224;2023-03-01T00:50:28;-1.70;99.90
16160;DHT22;8185;57.818;15.224;2023-03-01T00:52:56;-1.80;99.90
16160;DHT22;8185;57.818;15.224;2023-03-01T00:55:23;-1.90;99.90
16160;DHT22;8185;57.818;15.224;2023-03-01T00:57:51;-2.00;99.90
16160;DHT22;8185;57.818;15.224;2023-03-01T01:00:19;-1.90;99.90
16160;DHT22;8185;57.818;15.224;2023-03-01T01:02:46;-2.00;99.90
16160;DHT22;8185;57.818;15.224;2023-03-01T01:05:15;-2.10;99.90
16160;DHT22;8185;57.818;15.224;2023-03-01T01:07:47;-2.10;99.90
16160;DHT22;8185;57.818;15.224;2023-03-01T01:10:15;-2.10;99.90
16160;DHT22;8185;57.818;15.224;2023-03-01T01:12:44;-2.20;99.90
16160;DHT22;8185;57.818;15.224;2023-03-01T01:15:11;-2.20;99.90
16160;DHT22;8185;57.818;15.224;2023-03-01T01:17:40;-2.20;99.90
16160;DHT22;8185;57.818;15.224;2023-03-01T01:20:08;-2.30;99.90
16160;DHT22;8185;57.818;15.224;2023-03-01T01:22:37;-2.40;99.90
16160;DHT22;8185;57.818;15.224;2023-03-01T01:25:05;-2.50;99.90
16160;DHT22;8185;57.818;15.224;2023-03-01T01:27:32;-2.50;99.90
16160;DHT22;8185;57.818;15.224;2023-03-01T01:29:59;-2.50;99.90
16160;DHT22;8185;57.818;15.224;2023-03-01T01:32:27;-2.50;99.90
16160;DHT22;8185;57.818;15.224;2023-03-01T01:34:54;-2.50;99.90
16160;DHT22;8185;57.818;15.224;2023-03-01T01:37:22;-2.60;99.90
16160;DHT22;8185;57.818;15.224;2023-03-01T01:39:58;-2.50;99.90
16160;DHT22;8185;57.818;15.224;2023-03-01T01:42:26;-2.60;99.90
16160;DHT22;8185;57.818;15.224;2023-03-01T01:45:29;-2.60;99.90
16160;DHT22;8185;57.818;15.224;2023-03-01T01:47:59;-2.50;99.90
16160;DHT22;8185;57.818;15.224;2023-03-01T01:50:27;-2.40;99.90
16160;DHT22;8185;57.818;15.224;2023-03-01T01:53:05;-2.50;99.90
16160;DHT22;8185;57.818;15.224;2023-03-01T01:55:36;-2.60;99.90
16160;DHT22;8185;57.818;15.224;2023-03-01T01:58:06;-2.50;99.90
16160;DHT22;8185;57.818;15.224;2023-03-01T02:00:37;-2.60;99.90
16160;DHT22;8185;57.818;15.224;2023-03-01T02:03:10;-2.60;99.90
16160;DHT22;8185;57.818;15.224;2023-03-01T02:05:42;-2.70;99.90
16160;DHT22;8185;57.818;15.224;2023-03-01T02:08:13;-2.60;99.90
16160;DHT22;8185;57.818;15.224;2023-03-01T02:10:42;-2.70;99.90
16160;DHT22;8185;57.818;15.224;2023-03-01T02:13:10;-2.70;99.90
16160;DHT22;8185;57.818;15.224;2023-03-01T02:15:40;-2.80;99.90
16160;DHT22;8185;57.818;15.224;2023-03-01T02:18:10;-2.70;99.90
16160;DHT22;8185;57.818;15.224;2023-03-01T02:20:49;-2.70;99.90
16160;DHT22;8185;57.818;15.224;2023-03-01T02:23:18;-2.70;99.90
16160;DHT22;8185;57.818;15.224;2023-03-01T02:25:52;-2.50;99.90
16160;DHT22;8185;57.818;15.224;2023-03-01T02:28:26;-2.60;99.90
16160;DHT22;8185;57.818;15.224;2023-03-01T02:30:54;-2.70;99.90
16160;DHT22;8185;57.818;15.224;2023-03-01T02:33:41;-2.60;99.90
16160;DHT22;8185;57.818;15.224;2023-03-01T02:36:14;-2.70;99.90
16160;DHT22;8185;57.818;15.224;2023-03-01T02:38:43;-2.70;99.90
16160;DHT22;8185;57.818;15.224;2023-03-01T02:41:12;-2.70;99.90
16160;DHT22;8185;57.818;15.224;2023-03-01T02:43:43;-2.70;99.90
16160;DHT22;8185;57.818;15.224;2023-03-01T02:46:15;-2.70;99.90
16160;DHT22;8185;57.818;15.224;2023-03-01T02:48:45;-2.80;99.90
16160;DHT22;8185;57.818;15.224;2023-03-01T02:51:28;-2.70;99.90
16160;DHT22;8185;57.818;15.224;2023-03-01T02:54:11;-2.80;99.90
16160;DHT22;8185;57.818;15.224;2023-03-01T02:56:39;-2.80;99.90
16160;DHT22;8185;57.818;15.224;2023-03-01T02:59:09;-2.80;99.90
16160;DHT22;8185;57.818;15.224;2023-03-01T03:01:37;-2.70;99.90
16160;DHT22;8185;57.818;15.224;2023-03-01T03:04:05;-2.80;99.90
16160;DHT22;8185;57.818;15.224;2023-03-01T03:06:33;-2.70;99.90
16160;DHT22;8185;57.818;15.224;2023-03-01T03:09:00;-2.90;99.90
16160;DHT22;8185;57.818;15.224;2023-03-01T03:11:28;-2.90;99.90
16160;DHT22;8185;57.818;15.224;2023-03-01T03:13:56;-2.80;99.90
16160;DHT22;8185;57.818;15.224;2023-03-01T03:16:24;-2.90;99.90
16160;DHT22;8185;57.818;15.224;2023-03-01T03:18:52;-2.90;99.90
16160;DHT22;8185;57.818;15.224;2023-03-01T03:21:19;-2.90;99.90
16160;DHT22;8185;57.818;15.224;2023-03-01T03:23:46;-2.90;99.90
16160;DHT22;8185;57.818;15.224;2023-03-01T03:26:13;-2.90;99.90
16160;DHT22;8185;57.818;15.224;2023-03-01T03:28:41;-2.90;99.90
16160;DHT22;8185;57.818;15.224;2023-03-01T03:31:08;-2.90;99.90
16160;DHT22;8185;57.818;15.224;2023-03-01T03:33:37;-3.00;99.90
16160;DHT22;8185;57.818;15.224;2023-03-01T03:36:05;-2.90;99.90
16160;DHT22;8185;57.818;15.224;2023-03-01T03:38:32;-2.90;99.90
16160;DHT22;8185;57.818;15.224;2023-03-01T03:41:01;-2.90;99.90
16160;DHT22;8185;57.818;15.224;2023-03-01T03:43:30;-2.90;99.90
16160;DHT22;8185;57.818;15.224;2023-03-01T03:45:58;-3.00;99.90
16160;DHT22;8185;57.818;15.224;2023-03-01T03:48:26;-2.80;99.90
16160;DHT22;8185;57.818;15.224;2023-03-01T03:50:56;-2.90;99.90
16160;DHT22;8185;57.818;15.224;2023-03-01T03:53:25;-3.00;99.90
16160;DHT22;8185;57.818;15.224;2023-03-01T03:55:53;-3.10;99.90
16160;DHT22;8185;57.818;15.224;2023-03-01T03:58:23;-3.10;99.90
16160;DHT22;8185;57.818;15.224;2023-03-01T04:00:52;-3.10;99.90
16160;DHT22;8185;57.818;15.224;2023-03-01T04:03:21;-3.10;99.90
16160;DHT22;8185;57.818;15.224;2023-03-01T04:05:49;-2.90;99.90
16160;DHT22;8185;57.818;15.224;2023-03-01T04:08:18;-3.00;99.90
16160;DHT22;8185;57.818;15.224;2023-03-01T04:10:48;-3.10;99.90
16160;DHT22;8185;57.818;15.224;2023-03-01T04:13:17;-3.00;99.90
16160;DHT22;8185;57.818;15.224;2023-03-01T04:15:45;-3.00;99.90
16160;DHT22;8185;57.818;15.224;2023-03-01T04:18:14;-3.00;99.90
16160;DHT22;8185;57.818;15.224;2023-03-01T04:20:42;-3.10;99.90
16160;DHT22;8185;57.818;15.224;2023-03-01T04:23:12;-3.10;99.90
16160;DHT22;8185;57.818;15.224;2023-03-01T04:25:47;-3.00;99.90
16160;DHT22;8185;57.818;15.224;2023-03-01T04:28:20;-3.10;99.90
16160;DHT22;8185;57.818;15.224;2023-03-01T04:30:47;-3.00;99.90
16160;DHT22;8185;57.818;15.224;2023-03-01T04:33:14;-2.90;99.90
16160;DHT22;8185;57.818;15.224;2023-03-01T04:35:41;-3.00;99.90
16160;DHT22;8185;57.818;15.224;2023-03-01T04:38:08;-3.00;99.90
16160;DHT22;8185;57.818;15.224;2023-03-01T04:40:36;-3.00;99.90
16160;DHT22;8185;57.818;15.224;2023-03-01T04:43:05;-3.10;99.90
16160;DHT22;8185;57.818;15.224;2023-03-01T04:45:33;-3.10;99.90
16160;DHT22;8185;57.818;15.224;2023-03-01T04:48:01;-3.20;99.90
16160;DHT22;8185;57.818;15.224;2023-03-01T04:50:29;-3.10;99.90
16160;DHT22;8185;57.818;15.224;2023-03-01T04:52:56;-3.10;99.90
16160;DHT22;8185;57.818;15.224;2023-03-01T04:55:26;-3.20;99.90
16160;DHT22;8185;57.818;15.224;2023-03-01T04:57:53;-3.10;99.90
16160;DHT22;8185;57.818;15.224;2023-03-01T05:00:23;-3.00;99.90
16160;DHT22;8185;57.818;15.224;2023-03-01T05:02:51;-3.10;99.90
16160;DHT22;8185;57.818;15.224;2023-03-01T05:05:21;-3.00;99.90
16160;DHT22;8185;57.818;15.224;2023-03-01T05:07:52;-3.10;99.90
16160;DHT22;8185;57.818;15.224;2023-03-01T05:10:19;-3.20;99.90
16160;DHT22;8185;57.818;15.224;2023-03-01T05:12:47;-3.30;99.90
16160;DHT22;8185;57.818;15.224;2023-03-01T05:15:14;-3.50;99.90
16160;DHT22;8185;57.818;15.224;2023-03-01T05:17:43;-3.60;99.90
16160;DHT22;8185;57.818;15.224;2023-03-01T05:20:11;-3.50;99.90
16160;DHT22;8185;57.818;15.224;2023-03-01T05:22:38;-3.70;99.90
16160;DHT22;8185;57.818;15.224;2023-03-01T05:25:05;-3.70;99.90
16160;DHT22;8185;57.818;15.224;2023-03-01T05:27:34;-3.70;99.90
16160;DHT22;8185;57.818;15.224;2023-03-01T05:30:02;-3.80;99.90
16160;DHT22;8185;57.818;15.224;2023-03-01T05:32:40;-3.70;99.90
16160;DHT22;8185;57.818;15.224;2023-03-01T05:35:11;-3.60;99.90
16160;DHT22;8185;57.818;15.224;2023-03-01T05:37:41;-3.70;99.90
16160;DHT22;8185;57.818;15.224;2023-03-01T05:40:11;-3.60;99.90
16160;DHT22;8185;57.818;15.224;2023-03-01T05:42:44;-3.60;99.90
16160;DHT22;8185;57.818;15.224;2023-03-01T05:45:13;-3.60;99.90
16160;DHT22;8185;57.818;15.224;2023-03-01T05:47:40;-3.70;99.90
16160;DHT22;8185;57.818;15.224;2023-03-01T05:50:13;-3.70;99.90
16160;DHT22;8185;57.818;15.224;2023-03-01T05:52:44;-3.70;99.90
16160;DHT22;8185;57.818;15.224;2023-03-01T05:55:11;-3.50;99.90
16160;DHT22;8185;57.818;15.224;2023-03-01T05:57:38;-3.50;99.90
16160;DHT22;8185;57.818;15.224;2023-03-01T06:00:06;-3.60;99.90
16160;DHT22;8185;57.818;15.224;2023-03-01T06:02:34;-3.60;99.90
16160;DHT22;8185;57.818;15.224;2023-03-01T06:05:01;-3.70;99.90
16160;DHT22;8185;57.818;15.224;2023-03-01T06:07:31;-3.60;99.90
16160;DHT22;8185;57.818;15.224;2023-03-01T06:09:58;-3.50;99.90
16160;DHT22;8185;57.818;15.224;2023-03-01T06:12:25;-3.50;99.90
16160;DHT22;8185;57.818;15.224;2023-03-01T06:14:52;-3.50;99.90
16160;DHT22;8185;57.818;15.224;2023-03-01T06:17:19;-3.60;99.90
16160;DHT22;8185;57.818;15.224;2023-03-01T06:19:46;-3.60;99.90
16160;DHT22;8185;57.818;15.224;2023-03-01T06:22:14;-3.60;99.90
16160;DHT22;8185;57.818;15.224;2023-03-01T06:24:42;-3.50;99.90
16160;DHT22;8185;57.818;15.224;2023-03-01T06:27:09;-3.40;99.90
16160;DHT22;8185;57.818;15.224;2023-03-01T06:29:37;-3.30;99.90
16160;DHT22;8185;57.818;15.224;2023-03-01T06:32:04;-3.30;99.90
16160;DHT22;8185;57.818;15.224;2023-03-01T06:34:31;-3.30;99.90
16160;DHT22;8185;57.818;15.224;2023-03-01T06:36:59;-3.30;99.90
16160;DHT22;8185;57.818;15.224;2023-03-01T06:39:31;-3.30;99.90
16160;DHT22;8185;57.818;15.224;2023-03-01T06:41:59;-3.30;99.90
16160;DHT22;8185;57.818;15.224;2023-03-01T06:44:27;-3.10;99.90
16160;DHT22;8185;57.818;15.224;2023-03-01T06:46:55;-3.10;99.90
16160;DHT22;8185;57.818;15.224;2023-03-01T06:49:22;-3.00;99.90
16160;DHT22;8185;57.818;15.224;2023-03-01T06:51:50;-3.00;99.90
16160;DHT22;8185;57.818;15.224;2023-03-01T06:54:17;-2.90;99.90
16160;DHT22;8185;57.818;15.224;2023-03-01T06:56:46;-2.90;99.90
16160;DHT22;8185;57.818;15.224;2023-03-01T06:59:15;-2.80;99.90
16160;DHT22;8185;57.818;15.224;2023-03-01T07:01:43;-2.60;99.90
16160;DHT22;8185;57.818;15.224;2023-03-01T07:04:10;-2.50;99.90
16160;DHT22;8185;57.818;15.224;2023-03-01T07:06:37;-2.40;99.90
16160;DHT22;8185;57.818;15.224;2023-03-01T07:09:04;-2.30;99.90
16160;DHT22;8185;57.818;15.224;2023-03-01T07:11:33;-2.30;99.90
16160;DHT22;8185;57.818;15.224;2023-03-01T07:14:00;-2.20;99.90
16160;DHT22;8185;57.818;15.224;2023-03-01T07:16:28;-2.20;99.90
16160;DHT22;8185;57.818;15.224;2023-03-01T07:18:56;-2.20;99.90
16160;DHT22;8185;57.818;15.224;2023-03-01T07:21:23;-2.10;99.90
16160;DHT22;8185;57.818;15.224;2023-03-01T07:23:50;-2.00;99.90
16160;DHT22;8185;57.818;15.224;2023-03-01T07:26:17;-1.90;99.90
16160;DHT22;8185;57.818;15.224;2023-03-01T07:28:45;-1.80;99.90
16160;DHT22;8185;57.818;15.224;2023-03-01T07:31:12;-1.70;99.90
16160;DHT22;8185;57.818;15.224;2023-03-01T07:33:41;-1.60;99.90
16160;DHT22;8185;57.818;15.224;2023-03-01T07:36:09;-1.50;99.90
16160;DHT22;8185;57.818;15.224;2023-03-01T07:38:36;-1.40;99.90
16160;DHT22;8185;57.818;15.224;2023-03-01T07:41:04;-1.30;99.90
16160;DHT22;8185;57.818;15.224;2023-03-01T07:43:31;-1.30;99.90
16160;DHT22;8185;57.818;15.224;2023-03-01T07:45:59;-1.20;99.90
16160;DHT22;8185;57.818;15.224;2023-03-01T07:48:27;-1.20;99.90
16160;DHT22;8185;57.818;15.224;2023-03-01T07:50:58;-1.00;99.90
16160;DHT22;8185;57.818;15.224;2023-03-01T07:53:25;-1.00;99.90
16160;DHT22;8185;57.818;15.224;2023-03-01T07:56:01;-0.80;99.90
16160;DHT22;8185;57.818;15.224;2023-03-01T07:58:28;-0.70;99.90
16160;DHT22;8185;57.818;15.224;2023-03-01T08:00:56;-0.70;99.90
16160;DHT22;8185;57.818;15.224;2023-03-01T08:03:23;-0.60;99.90
16160;DHT22;8185;57.818;15.224;2023-03-01T08:05:50;-0.50;99.90
16160;DHT22;8185;57.818;15.224;2023-03-01T08:08:18;-0.50;99.90
16160;DHT22;8185;57.818;15.224;2023-03-01T08:10:46;-0.40;99.90
16160;DHT22;8185;57.818;15.224;2023-03-01T08:13:13;-0.40;99.90
16160;DHT22;8185;57.818;15.224;2023-03-01T08:15:40;-0.30;99.90
16160;DHT22;8185;57.818;15.224;2023-03-01T08:18:07;-0.20;99.90
16160;DHT22;8185;57.818;15.224;2023-03-01T08:20:34;-0.10;99.90
16160;DHT22;8185;57.818;15.224;2023-03-01T08:23:02;0.00;99.90
16160;DHT22;8185;57.818;15.224;2023-03-01T08:25:30;0.10;99.90
16160;DHT22;8185;57.818;15.224;2023-03-01T08:27:58;0.20;99.90
16160;DHT22;8185;57.818;15.224;2023-03-01T08:30:25;0.20;99.90
16160;DHT22;8185;57.818;15.224;2023-03-01T08:32:52;0.30;99.90
16160;DHT22;8185;57.818;15.224;2023-03-01T08:35:20;0.40;99.90
16160;DHT22;8185;57.818;15.224;2023-03-01T08:37:47;0.60;99.90
16160;DHT22;8185;57.818;15.224;2023-03-01T08:40:15;0.70;99.90
16160;DHT22;8185;57.818;15.224;2023-03-01T08:42:44;0.80;99.90
16160;DHT22;8185;57.818;15.224;2023-03-01T08:45:11;0.90;99.90
16160;DHT22;8185;57.818;15.224;2023-03-01T08:47:39;1.00;99.90
16160;DHT22;8185;57.818;15.224;2023-03-01T08:50:08;1.10;99.90
16160;DHT22;8185;57.818;15.224;2023-03-01T08:52:35;1.20;99.90
16160;DHT22;8185;57.818;15.224;2023-03-01T08:55:03;1.30;99.90
16160;DHT22;8185;57.818;15.224;2023-03-01T08:57:30;1.50;99.90
16160;DHT22;8185;57.818;15.224;2023-03-01T08:59:59;1.60;99.90
16160;DHT22;8185;57.818;15.224;2023-03-01T09:02:26;1.80;99.90
16160;DHT22;8185;57.818;15.224;2023-03-01T09:04:53;1.90;99.90
16160;DHT22;8185;57.818;15.224;2023-03-01T09:07:21;2.00;99.90
16160;DHT22;8185;57.818;15.224;2023-03-01T09:09:54;2.00;99.90
16160;DHT22;8185;57.818;15.224;2023-03-01T09:12:21;2.20;99.90
16160;DHT22;8185;57.818;15.224;2023-03-01T09:14:50;2.30;99.90
16160;DHT22;8185;57.818;15.224;2023-03-01T09:17:19;2.40;99.90
16160;DHT22;8185;57.818;15.224;2023-03-01T09:19:47;2.50;99.90
16160;DHT22;8185;57.818;15.224;2023-03-01T09:22:15;2.60;99.90
16160;DHT22;8185;57.818;15.224;2023-03-01T09:24:42;2.80;99.90
16160;DHT22;8185;57.818;15.224;2023-03-01T09:27:09;2.90;99.90
16160;DHT22;8185;57.818;15.224;2023-03-01T09:29:38;3.00;99.90
16160;DHT22;8185;57.818;15.224;2023-03-01T09:32:06;3.10;99.90
16160;DHT22;8185;57.818;15.224;2023-03-01T09:34:35;3.20;99.90
16160;DHT22;8185;57.818;15.224;2023-03-01T09:37:22;3.30;99.90
16160;DHT22;8185;57.818;15.224;2023-03-01T09:39:50;3.40;99.90
16160;DHT22;8185;57.818;15.224;2023-03-01T09:42:17;3.60;99.90
16160;DHT22;8185;57.818;15.224;2023-03-01T09:44:48;3.80;99.90
16160;DHT22;8185;57.818;15.224;2023-03-01T09:47:20;4.30;99.90
16160;DHT22;8185;57.818;15.224;2023-03-01T09:49:57;4.60;99.90
16160;DHT22;8185;57.818;15.224;2023-03-01T09:52:33;5.10;99.90
16160;DHT22;8185;57.818;15.224;2023-03-01T09:55:01;5.60;99.90
16160;DHT22;8185;57.818;15.224;2023-03-01T09:57:38;6.00;99.90
16160;DHT22;8185;57.818;15.224;2023-03-01T10:00:33;6.70;99.90
16160;DHT22;8185;57.818;15.224;2023-03-01T10:03:12;7.10;99.90
16160;DHT22;8185;57.818;15.224;2023-03-01T10:05:57;7.30;99.90
16160;DHT22;8185;57.818;15.224;2023-03-01T10:08:30;8.10;99.90
16160;DHT22;8185;57.818;15.224;2023-03-01T10:11:02;8.40;99.90
16160;DHT22;8185;57.818;15.224;2023-03-01T10:13:40;8.00;99.90
16160;DHT22;8185;57.818;15.224;2023-03-01T10:16:13;9.00;99.90
16160;DHT22;8185;57.818;15.224;2023-03-01T10:18:46;9.20;99.90
16160;DHT22;8185;57.818;15.224;2023-03-01T10:21:18;10.20;99.90
16160;DHT22;8185;57.818;15.224;2023-03-01T10:23:46;10.10;99.90
16160;DHT22;8185;57.818;15.224;2023-03-01T10:26:32;9.80;99.90
16160;DHT22;8185;57.818;15.224;2023-03-01T10:29:05;10.10;99.90
16160;DHT22;8185;57.818;15.224;2023-03-01T10:31:41;10.00;99.90
16160;DHT22;8185;57.818;15.224;2023-03-01T10:34:12;10.60;99.90
16160;DHT22;8185;57.818;15.224;2023-03-01T10:36:42;10.30;99.90
16160;DHT22;8185;57.818;15.224;2023-03-01T10:39:16;11.70;99.90
16160;DHT22;8185;57.818;15.224;2023-03-01T10:41:58;12.00;99.90
16160;DHT22;8185;57.818;15.224;2023-03-01T10:44:40;11.80;99.90
16160;DHT22;8185;57.818;15.224;2023-03-01T10:47:14;10.60;99.90
16160;DHT22;8185;57.818;15.224;2023-03-01T10:49:56;11.10;99.90
16160;DHT22;8185;57.818;15.224;2023-03-01T10:52:27;9.60;99.90
16160;DHT22;8185;57.818;15.224;2023-03-01T10:54:57;9.40;99.90
16160;DHT22;8185;57.818;15.224;2023-03-01T10:57:33;9.80;99.90
16160;DHT22;8185;57.818;15.224;2023-03-01T11:00:21;10.50;99.90
16160;DHT22;8185;57.818;15.224;2023-03-01T11:02:51;9.40;99.90
16160;DHT22;8185;57.818;15.224;2023-03-01T11:05:29;8.90;99.90
16160;DHT22;8185;57.818;15.224;2023-03-01T11:08:02;9.20;99.90
16160;DHT22;8185;57.818;15.224;2023-03-01T11:10:32;9.70;99.90
16160;DHT22;8185;57.818;15.224;2023-03-01T11:13:08;9.70;99.90
16160;DHT22;8185;57.818;15.224;2023-03-01T11:15:36;9.50;99.90
16160;DHT22;8185;57.818;15.224;2023-03-01T11:18:03;8.90;99.90
16160;DHT22;8185;57.818;15.224;2023-03-01T11:20:33;8.70;99.90
16160;DHT22;8185;57.818;15.224;2023-03-01T11:23:05;8.30;99.90
16160;DHT22;8185;57.818;15.224;2023-03-01T11:25:37;7.90;99.90
16160;DHT22;8185;57.818;15.224;2023-03-01T11:28:05;7.80;99.90
16160;DHT22;8185;57.818;15.224;2023-03-01T11:30:39;8.00;99.90
16160;DHT22;8185;57.818;15.224;2023-03-01T11:33:16;8.00;99.90
16160;DHT22;8185;57.818;15.224;2023-03-01T11:35:50;8.10;99.90
16160;DHT22;8185;57.818;15.224;2023-03-01T11:38:24;7.70;99.90
16160;DHT22;8185;57.818;15.224;2023-03-01T11:40:55;7.70;99.90
16160;DHT22;8185;57.818;15.224;2023-03-01T11:43:31;7.40;99.90
16160;DHT22;8185;57.818;15.224;2023-03-01T11:52:03;8.10;99.90
16160;DHT22;8185;57.818;15.224;2023-03-01T11:54:47;7.90;99.90
16160;DHT22;8185;57.818;15.224;2023-03-01T11:57:28;7.70;99.90
16160;DHT22;8185;57.818;15.224;2023-03-01T12:00:22;7.30;99.90
16160;DHT22;8185;57.818;15.224;2023-03-01T12:08:56;6.90;99.90
16160;DHT22;8185;57.818;15.224;2023-03-01T12:11:35;6.90;99.90
16160;DHT22;8185;57.818;15.224;2023-03-01T12:14:19;7.10;99.90
16160;DHT22;8185;57.818;15.224;2023-03-01T12:19:56;7.20;99.90
16160;DHT22;8185;57.818;15.224;2023-03-01T12:22:32;7.50;99.90
16160;DHT22;8185;57.818;15.224;2023-03-01T12:25:16;8.30;99.90
16160;DHT22;8185;57.818;15.224;2023-03-01T12:31:05;10.00;99.90
16160;DHT22;8185;57.818;15.224;2023-03-01T12:33:45;9.50;99.90
16160;DHT22;8185;57.818;15.224;2023-03-01T12:36:31;9.10;99.90
16160;DHT22;8185;57.818;15.224;2023-03-01T12:39:14;9.10;99.90
16160;DHT22;8185;57.818;15.224;2023-03-01T12:41:51;9.00;99.90
16160;DHT22;8185;57.818;15.224;2023-03-01T12:44:35;9.60;99.90
16160;DHT22;8185;57.818;15.224;2023-03-01T12:47:14;9.70;99.90
16160;DHT22;8185;57.818;15.224;2023-03-01T12:49:50;10.50;99.90
16160;DHT22;8185;57.818;15.224;2023-03-01T12:52:22;10.30;99.90
16160;DHT22;8185;57.818;15.224;2023-03-01T12:55:07;9.90;99.90
16160;DHT22;8185;57.818;15.224;2023-03-01T12:57:39;9.60;99.90
16160;DHT22;8185;57.818;15.224;2023-03-01T13:00:22;9.90;99.90
16160;DHT22;8185;57.818;15.224;2023-03-01T13:02:57;9.40;99.90
16160;DHT22;8185;57.818;15.224;2023-03-01T13:05:37;9.20;99.90
16160;DHT22;8185;57.818;15.224;2023-03-01T13:08:11;8.60;99.90
16160;DHT22;8185;57.818;15.224;2023-03-01T13:10:46;8.40;99.90
16160;DHT22;8185;57.818;15.224;2023-03-01T13:13:19;8.40;99.90
16160;DHT22;8185;57.818;15.224;2023-03-01T13:15:48;8.70;99.90
16160;DHT22;8185;57.818;15.224;2023-03-01T13:18:40;8.20;99.90
16160;DHT22;8185;57.818;15.224;2023-03-01T13:21:07;7.70;99.90
16160;DHT22;8185;57.818;15.224;2023-03-01T13:23:37;7.80;99.90
16160;DHT22;8185;57.818;15.224;2023-03-01T13:26:13;7.50;99.90
16160;DHT22;8185;57.818;15.224;2023-03-01T13:28:52;7.50;99.90
16160;DHT22;8185;57.818;15.224;2023-03-01T13:34:56;7.00;99.90
16160;DHT22;8185;57.818;15.224;2023-03-01T13:37:33;7.10;99.90
16160;DHT22;8185;57.818;15.224;2023-03-01T13:42:51;9.30;99.90
16160;DHT22;8185;57.818;15.224;2023-03-01T13:45:26;9.70;99.90
16160;DHT22;8185;57.818;15.224;2023-03-01T13:48:02;10.30;99.90
16160;DHT22;8185;57.818;15.224;2023-03-01T13:50:36;10.40;99.90
16160;DHT22;8185;57.818;15.224;2023-03-01T13:53:06;10.40;99.90
16160;DHT22;8185;57.818;15.224;2023-03-01T13:55:40;10.50;99.90
16160;DHT22;8185;57.818;15.224;2023-03-01T13:58:18;10.30;99.90
16160;DHT22;8185;57.818;15.224;2023-03-01T14:00:54;10.50;99.90
16160;DHT22;8185;57.818;15.224;2023-03-01T14:03:22;9.20;99.90
16160;DHT22;8185;57.818;15.224;2023-03-01T14:06:03;9.60;99.90
16160;DHT22;8185;57.818;15.224;2023-03-01T14:08:34;9.40;99.90
16160;DHT22;8185;57.818;15.224;2023-03-01T14:11:35;9.20;99.90
16160;DHT22;8185;57.818;15.224;2023-03-01T14:14:29;9.50;99.90
16160;DHT22;8185;57.818;15.224;2023-03-01T14:17:07;10.00;99.90
16160;DHT22;8185;57.818;15.224;2023-03-01T14:19:38;10.00;99.90
16160;DHT22;8185;57.818;15.224;2023-03-01T14:22:17;10.10;99.90
16160;DHT22;8185;57.818;15.224;2023-03-01T14:24:48;10.80;99.90
16160;DHT22;8185;57.818;15.224;2023-03-01T14:27:16;11.30;99.90
16160;DHT22;8185;57.818;15.224;2023-03-01T14:29:45;11.10;99.90
16160;DHT22;8185;57.818;15.224;2023-03-01T14:32:22;12.10;99.90
16160;DHT22;8185;57.818;15.224;2023-03-01T14:34:51;13.20;99.90
16160;DHT22;8185;57.818;15.224;2023-03-01T14:37:24;13.60;99.60
16160;DHT22;8185;57.818;15.224;2023-03-01T14:39:52;14.20;97.60
16160;DHT22;8185;57.818;15.224;2023-03-01T14:42:21;14.10;97.00
16160;DHT22;8185;57.818;15.224;2023-03-01T14:44:50;15.00;96.00
16160;DHT22;8185;57.818;15.224;2023-03-01T14:47:25;13.40;95.30
16160;DHT22;8185;57.818;15.224;2023-03-01T14:49:58;13.50;95.50
16160;DHT22;8185;57.818;15.224;2023-03-01T14:52:32;14.00;94.80
16160;DHT22;8185;57.818;15.224;2023-03-01T14:55:03;12.60;95.80
16160;DHT22;8185;57.818;15.224;2023-03-01T14:57:31;13.60;96.10
16160;DHT22;8185;57.818;15.224;2023-03-01T14:59:59;13.70;94.80
16160;DHT22;8185;57.818;15.224;2023-03-01T15:02:31;13.50;94.70
16160;DHT22;8185;57.818;15.224;2023-03-01T15:05:01;14.30;94.40
16160;DHT22;8185;57.818;15.224;2023-03-01T15:07:33;14.70;93.70
16160;DHT22;8185;57.818;15.224;2023-03-01T15:10:02;14.20;93.90
16160;DHT22;8185;57.818;15.224;2023-03-01T15:12:38;14.00;93.30
16160;DHT22;8185;57.818;15.224;2023-03-01T15:15:33;13.90;93.50
16160;DHT22;8185;57.818;15.224;2023-03-01T15:18:02;13.50;93.90
16160;DHT22;8185;57.818;15.224;2023-03-01T15:20:30;13.30;93.70
16160;DHT22;8185;57.818;15.224;2023-03-01T15:23:03;13.20;94.00
16160;DHT22;8185;57.818;15.224;2023-03-01T15:25:32;13.10;93.60
16160;DHT22;8185;57.818;15.224;2023-03-01T15:28:01;12.80;95.00
16160;DHT22;8185;57.818;15.224;2023-03-01T15:30:31;12.20;95.10
16160;DHT22;8185;57.818;15.224;2023-03-01T15:33:19;11.90;96.30
16160;DHT22;8185;57.818;15.224;2023-03-01T15:35:48;12.40;95.50
16160;DHT22;8185;57.818;15.224;2023-03-01T15:38:30;12.10;94.90
16160;DHT22;8185;57.818;15.224;2023-03-01T15:40:58;11.80;96.20
16160;DHT22;8185;57.818;15.224;2023-03-01T15:43:43;12.10;96.30
16160;DHT22;8185;57.818;15.224;2023-03-01T15:46:24;12.30;96.10
16160;DHT22;8185;57.818;15.224;2023-03-01T15:48:54;11.80;95.80
16160;DHT22;8185;57.818;15.224;2023-03-01T15:51:34;11.40;95.60
16160;DHT22;8185;57.818;15.224;2023-03-01T15:54:06;10.70;97.00
16160;DHT22;8185;57.818;15.224;2023-03-01T15:56:37;10.20;97.40
16160;DHT22;8185;57.818;15.224;2023-03-01T15:59:04;10.50;97.90
16160;DHT22;8185;57.818;15.224;2023-03-01T16:01:32;9.90;98.10
16160;DHT22;8185;57.818;15.224;2023-03-01T16:04:00;10.20;98.40
16160;DHT22;8185;57.818;15.224;2023-03-01T16:06:29;10.10;98.80
16160;DHT22;8185;57.818;15.224;2023-03-01T16:08:56;9.80;99.50
16160;DHT22;8185;57.818;15.224;2023-03-01T16:11:25;8.80;99.90
16160;DHT22;8185;57.818;15.224;2023-03-01T16:13:52;7.40;99.90
16160;DHT22;8185;57.818;15.224;2023-03-01T16:16:20;6.80;99.90
16160;DHT22;8185;57.818;15.224;2023-03-01T16:18:48;6.20;99.90
16160;DHT22;8185;57.818;15.224;2023-03-01T16:21:20;5.90;99.90
16160;DHT22;8185;57.818;15.224;2023-03-01T16:23:47;5.70;99.90